Weather History for Fort Yukon, AK

Change the Weather History Date:

Tuesday, May 28, 2013

  Actual Average Record
Temperature  
Mean Temperature 64 °F -  
Max Temperature 78 °F 60 °F 80 °F (2011)
Min Temperature 51 °F 40 °F 28 °F (2002)
Growing Degree Days 14 (Base 50)    
Moisture  
Dew Point 34 °F    
Average Humidity 34    
Maximum Humidity 67    
Minimum Humidity 14    
Precipitation  
Precipitation 0.00 in - - ()
Sea Level Pressure  
Sea Level Pressure 29.80 in    
Wind  
Wind Speed 6 mph (NE)    
Max Wind Speed 15 mph    
Max Gust Speed 22 mph    
Visibility 10 miles    
Events      
Averages and records for this station are not official NWS values.
T = Trace of Precipitation, MM = Missing Value Source: NWS Daily Summary

Daily Weather History Graph

Daily Weather History Graph

Search for Another Location

Airport:

Trip Planner

Search our weather history database for the weather conditions in past years. The results will help you decide how hot, cold, wet, or windy it might be!

Date:

Astronomy

May. 28, 2013 Rise Set
Actual Time 2:51 AM AKDT 12:30 AM AKDT
Civil Twilight Sun does not rise Sun does not rise
Nautical Twilight Sun does not rise Sun does not rise
Astronomical Twilight Sun does not rise Sun does not rise
Moon 1:50 AM AKDT (5/28) 8:18 AM AKDT (5/28)
Length of Visible Light 24h 00m
Length of Day
21h 38m
Waning Gibbous, 81% of the Moon is Illuminated
May 28
Waning Gibbous
May 31
Last Quarter
Jun 8
New
Jun 16
First Quarter
Jun 23
Full

Hourly Weather History & Observations

Time (AKDT) Temp. Dew Point Humidity Pressure Visibility Wind Dir Wind Speed Gust Speed Precip Events Conditions
12:16 AM 55.4 °F 37.4 °F 51% 29.83 in 10.0 mi Calm Calm - N/A   Clear
12:36 AM 53.6 °F 35.6 °F 51% 29.83 in 10.0 mi Calm Calm - N/A   Clear
12:56 AM 53.6 °F 42.8 °F 67% 29.83 in 10.0 mi Calm Calm - N/A   Clear
1:16 AM 53.6 °F 42.8 °F 67% 29.83 in 10.0 mi Calm Calm - N/A   Clear
1:36 AM 53.6 °F 37.4 °F 54% 29.83 in 10.0 mi Calm Calm - N/A   Clear
1:56 AM 51.8 °F 39.2 °F 62% 29.83 in 9.0 mi Calm Calm - N/A   Clear
2:16 AM 51.8 °F 37.4 °F 58% 29.83 in 10.0 mi NE 3.5 mph - N/A   Clear
2:36 AM 51.8 °F 33.8 °F 50% 29.83 in 10.0 mi Calm Calm - N/A   Clear
2:56 AM 50.0 °F 39.2 °F 66% 29.83 in 9.0 mi NE 4.6 mph - N/A   Clear
3:16 AM 51.8 °F 33.8 °F 50% 29.83 in 10.0 mi NE 3.5 mph - N/A   Clear
3:36 AM 51.8 °F 32.0 °F 47% 29.84 in 10.0 mi NE 5.8 mph - N/A   Clear
3:56 AM 51.8 °F 32.0 °F 47% 29.84 in 10.0 mi NE 5.8 mph - N/A   Clear
4:16 AM 51.8 °F 32.0 °F 47% 29.84 in 10.0 mi NE 6.9 mph - N/A   Clear
4:36 AM 51.8 °F 32.0 °F 47% 29.84 in 10.0 mi NE 8.1 mph - N/A   Clear
4:56 AM 51.8 °F 32.0 °F 47% 29.84 in 10.0 mi NE 8.1 mph - N/A   Clear
5:16 AM 51.8 °F 33.8 °F 50% 29.85 in 10.0 mi NE 10.4 mph - N/A   Clear
5:36 AM 51.8 °F 33.8 °F 50% 29.85 in 10.0 mi NE 8.1 mph - N/A   Clear
5:56 AM 51.8 °F 33.8 °F 50% 29.85 in 10.0 mi NE 9.2 mph - N/A   Clear
6:16 AM 51.8 °F 35.6 °F 54% 29.85 in 10.0 mi NE 9.2 mph - N/A   Clear
6:36 AM 53.6 °F 35.6 °F 51% 29.84 in 10.0 mi NE 9.2 mph - N/A   Clear
6:56 AM 53.6 °F 35.6 °F 51% 29.84 in 10.0 mi NE 10.4 mph - N/A   Clear
7:16 AM 55.4 °F 35.6 °F 47% 29.84 in 10.0 mi NE 11.5 mph - N/A   Clear
7:36 AM 55.4 °F 35.6 °F 47% 29.84 in 10.0 mi NE 11.5 mph - N/A   Clear
7:56 AM 57.2 °F 35.6 °F 44% 29.84 in 10.0 mi NE 10.4 mph - N/A   Clear
8:16 AM 57.2 °F 35.6 °F 44% 29.84 in 10.0 mi NE 11.5 mph - N/A   Clear
8:56 AM 60.8 °F 35.6 °F 39% 29.84 in 10.0 mi NE 8.1 mph - N/A   Clear
9:16 AM 62.6 °F 35.6 °F 37% 29.84 in 10.0 mi NE 9.2 mph - N/A   Clear
9:36 AM 64.4 °F 35.6 °F 34% 29.84 in 10.0 mi NE 8.1 mph - N/A   Clear
9:56 AM 64.4 °F 35.6 °F 34% 29.84 in 10.0 mi NE 9.2 mph - N/A   Clear
10:16 AM 66.2 °F 35.6 °F 32% 29.83 in 10.0 mi NNE 9.2 mph - N/A   Clear
10:36 AM 66.2 °F 37.4 °F 35% 29.84 in 10.0 mi NE 9.2 mph - N/A   Clear
10:56 AM 68.0 °F 37.4 °F 33% 29.83 in 10.0 mi NE 8.1 mph - N/A   Clear
11:16 AM 69.8 °F 37.4 °F 31% 29.83 in 10.0 mi NE 11.5 mph - N/A   Clear
11:36 AM 69.8 °F 37.4 °F 31% 29.83 in 10.0 mi NNE 10.4 mph - N/A   Clear
11:56 AM 71.6 °F 37.4 °F 29% 29.82 in 10.0 mi ENE 8.1 mph - N/A   Clear
12:16 PM 73.4 °F 35.6 °F 25% 29.82 in 10.0 mi NE 10.4 mph - N/A   Clear
12:36 PM 73.4 °F 35.6 °F 25% 29.81 in 10.0 mi East 6.9 mph 16.1 mph N/A   Clear
12:56 PM 73.4 °F 35.6 °F 25% 29.81 in 10.0 mi NE 6.9 mph - N/A   Clear
1:16 PM 75.2 °F 33.8 °F 22% 29.80 in 10.0 mi ENE 9.2 mph - N/A   Clear
1:36 PM 75.2 °F 33.8 °F 22% 29.80 in 10.0 mi ENE 12.7 mph 16.1 mph N/A   Clear
1:56 PM 75.2 °F 33.8 °F 22% 29.80 in 10.0 mi ENE 10.4 mph 19.6 mph N/A   Clear
2:16 PM 75.2 °F 33.8 °F 22% 29.79 in 10.0 mi NE 11.5 mph 19.6 mph N/A   Clear
2:36 PM 75.2 °F 32.0 °F 21% 29.79 in 10.0 mi NE 13.8 mph 19.6 mph N/A   Partly Cloudy
2:56 PM 77.0 °F 32.0 °F 19% 29.79 in 10.0 mi ENE 8.1 mph 19.6 mph N/A   Partly Cloudy
3:16 PM 75.2 °F 32.0 °F 21% 29.78 in 10.0 mi NNE 9.2 mph 18.4 mph N/A   Partly Cloudy
3:36 PM 77.0 °F 33.8 °F 21% 29.78 in 10.0 mi ENE 12.7 mph 18.4 mph N/A   Partly Cloudy
3:56 PM 77.0 °F 32.0 °F 19% 29.77 in 10.0 mi NE 12.7 mph 20.7 mph N/A   Partly Cloudy
4:16 PM 77.0 °F 32.0 °F 19% 29.77 in 10.0 mi NE 11.5 mph 20.7 mph N/A   Partly Cloudy
4:36 PM 77.0 °F 32.0 °F 19% 29.77 in 10.0 mi NE 9.2 mph 19.6 mph N/A   Partly Cloudy
4:56 PM 77.0 °F 32.0 °F 19% 29.76 in 10.0 mi East 10.4 mph 21.9 mph N/A   Partly Cloudy
5:16 PM 77.0 °F 32.0 °F 19% 29.76 in 10.0 mi NE 12.7 mph 17.3 mph N/A   Partly Cloudy
5:36 PM 77.0 °F 32.0 °F 19% 29.75 in 10.0 mi NE 11.5 mph 17.3 mph N/A   Partly Cloudy
5:56 PM 77.0 °F 32.0 °F 19% 29.75 in 10.0 mi NE 11.5 mph 17.3 mph N/A   Partly Cloudy
6:16 PM 77.0 °F 32.0 °F 19% 29.75 in 10.0 mi NE 12.7 mph 17.3 mph N/A   Partly Cloudy
6:36 PM 77.0 °F 32.0 °F 19% 29.75 in 10.0 mi ENE 15.0 mph 20.7 mph N/A   Partly Cloudy
6:56 PM 77.0 °F 32.0 °F 19% 29.74 in 10.0 mi NE 12.7 mph 16.1 mph N/A   Partly Cloudy
7:16 PM 77.0 °F 32.0 °F 19% 29.74 in 10.0 mi NE 12.7 mph - N/A   Clear
7:36 PM 75.2 °F 32.0 °F 21% 29.74 in 10.0 mi ENE 9.2 mph 17.3 mph N/A   Clear
7:56 PM 75.2 °F 32.0 °F 21% 29.74 in 10.0 mi NE 11.5 mph - N/A   Clear
8:16 PM 75.2 °F 32.0 °F 21% 29.74 in 10.0 mi NE 13.8 mph 18.4 mph N/A   Clear
8:36 PM 75.2 °F 32.0 °F 21% 29.74 in 10.0 mi NE 10.4 mph - N/A   Clear
8:56 PM 75.2 °F 32.0 °F 21% 29.74 in 10.0 mi ENE 10.4 mph - N/A   Clear
9:16 PM 73.4 °F 32.0 °F 22% 29.75 in 10.0 mi NE 9.2 mph - N/A   Clear
9:36 PM 73.4 °F 32.0 °F 22% 29.75 in 10.0 mi ENE 6.9 mph - N/A   Clear
9:56 PM 73.4 °F 33.8 °F 23% 29.75 in 10.0 mi ENE 6.9 mph - N/A   Clear
10:16 PM 71.6 °F 32.0 °F 23% 29.75 in 10.0 mi ENE 6.9 mph - N/A   Clear
10:36 PM 69.8 °F 32.0 °F 25% 29.75 in 10.0 mi ENE 5.8 mph - N/A   Clear
10:56 PM 68.0 °F 32.0 °F 26% 29.75 in 10.0 mi ENE 4.6 mph - N/A   Clear
11:16 PM 66.2 °F 32.0 °F 28% 29.75 in 10.0 mi ENE 4.6 mph - N/A   Clear
11:36 PM 64.4 °F 32.0 °F 30% 29.76 in 10.0 mi East 3.5 mph - N/A   Clear
11:56 PM 62.6 °F 32.0 °F 32% 29.76 in 10.0 mi Calm Calm - N/A   Clear